sensor_id;sensor_type;location;lat;lon;timestamp;P1;durP1;ratioP1;P2;durP2;ratioP2
76693;SDS011;69667;52.136;5.424;2024-01-30T00:02:24;8.20;;;4.28;;
76693;SDS011;69667;52.136;5.424;2024-01-30T00:04:53;11.13;;;5.38;;
76693;SDS011;69667;52.136;5.424;2024-01-30T00:07:22;7.32;;;3.67;;
76693;SDS011;69667;52.136;5.424;2024-01-30T00:09:51;9.55;;;4.70;;
76693;SDS011;69667;52.136;5.424;2024-01-30T00:12:19;6.28;;;3.88;;
76693;SDS011;69667;52.136;5.424;2024-01-30T00:14:48;8.80;;;4.13;;
76693;SDS011;69667;52.136;5.424;2024-01-30T00:17:20;12.07;;;5.10;;
76693;SDS011;69667;52.136;5.424;2024-01-30T00:19:49;7.18;;;3.88;;
76693;SDS011;69667;52.136;5.424;2024-01-30T00:22:21;13.60;;;4.07;;
76693;SDS011;69667;52.136;5.424;2024-01-30T00:24:51;8.80;;;3.90;;
76693;SDS011;69667;52.136;5.424;2024-01-30T00:27:19;9.45;;;4.65;;
76693;SDS011;69667;52.136;5.424;2024-01-30T00:29:47;10.32;;;4.55;;
76693;SDS011;69667;52.136;5.424;2024-01-30T00:32:16;9.10;;;4.85;;
76693;SDS011;69667;52.136;5.424;2024-01-30T00:34:46;9.90;;;4.45;;
76693;SDS011;69667;52.136;5.424;2024-01-30T00:37:15;9.63;;;4.68;;
76693;SDS011;69667;52.136;5.424;2024-01-30T00:39:43;11.05;;;4.53;;
76693;SDS011;69667;52.136;5.424;2024-01-30T00:42:12;8.20;;;4.30;;
76693;SDS011;69667;52.136;5.424;2024-01-30T00:44:42;8.90;;;4.78;;
76693;SDS011;69667;52.136;5.424;2024-01-30T00:47:10;9.38;;;4.28;;
76693;SDS011;69667;52.136;5.424;2024-01-30T00:49:38;9.25;;;4.43;;
76693;SDS011;69667;52.136;5.424;2024-01-30T00:52:07;14.68;;;4.90;;
76693;SDS011;69667;52.136;5.424;2024-01-30T00:54:35;10.55;;;4.13;;
76693;SDS011;69667;52.136;5.424;2024-01-30T00:57:03;9.25;;;4.40;;
76693;SDS011;69667;52.136;5.424;2024-01-30T00:59:32;9.82;;;4.55;;
76693;SDS011;69667;52.136;5.424;2024-01-30T01:04:29;7.93;;;3.83;;
76693;SDS011;69667;52.136;5.424;2024-01-30T01:07:01;10.02;;;3.80;;
76693;SDS011;69667;52.136;5.424;2024-01-30T01:09:30;7.57;;;3.92;;
76693;SDS011;69667;52.136;5.424;2024-01-30T01:11:58;7.13;;;4.10;;
76693;SDS011;69667;52.136;5.424;2024-01-30T01:14:26;7.57;;;4.47;;
76693;SDS011;69667;52.136;5.424;2024-01-30T01:16:55;10.23;;;4.10;;
76693;SDS011;69667;52.136;5.424;2024-01-30T01:19:25;7.47;;;3.97;;
76693;SDS011;69667;52.136;5.424;2024-01-30T01:21:53;7.60;;;4.18;;
76693;SDS011;69667;52.136;5.424;2024-01-30T01:24:24;9.45;;;4.10;;
76693;SDS011;69667;52.136;5.424;2024-01-30T01:26:52;8.30;;;3.65;;
76693;SDS011;69667;52.136;5.424;2024-01-30T01:29:20;10.13;;;4.38;;
76693;SDS011;69667;52.136;5.424;2024-01-30T01:34:24;6.13;;;3.72;;
76693;SDS011;69667;52.136;5.424;2024-01-30T01:36:56;7.28;;;3.85;;
76693;SDS011;69667;52.136;5.424;2024-01-30T01:39:26;7.68;;;4.07;;
76693;SDS011;69667;52.136;5.424;2024-01-30T01:41:54;9.55;;;4.30;;
76693;SDS011;69667;52.136;5.424;2024-01-30T01:44:23;10.30;;;4.93;;
76693;SDS011;69667;52.136;5.424;2024-01-30T01:46:55;8.13;;;3.25;;
76693;SDS011;69667;52.136;5.424;2024-01-30T01:49:27;5.55;;;3.53;;
76693;SDS011;69667;52.136;5.424;2024-01-30T01:51:56;9.63;;;4.80;;
76693;SDS011;69667;52.136;5.424;2024-01-30T01:54:26;5.40;;;3.55;;
76693;SDS011;69667;52.136;5.424;2024-01-30T01:56:57;7.30;;;4.07;;
76693;SDS011;69667;52.136;5.424;2024-01-30T01:59:25;7.75;;;3.60;;
76693;SDS011;69667;52.136;5.424;2024-01-30T02:01:55;5.40;;;3.42;;
76693;SDS011;69667;52.136;5.424;2024-01-30T02:04:23;11.15;;;3.88;;
76693;SDS011;69667;52.136;5.424;2024-01-30T02:06:52;7.47;;;3.20;;
76693;SDS011;69667;52.136;5.424;2024-01-30T02:09:20;7.65;;;4.05;;
76693;SDS011;69667;52.136;5.424;2024-01-30T02:11:49;9.10;;;4.22;;
76693;SDS011;69667;52.136;5.424;2024-01-30T02:14:17;6.30;;;3.38;;
76693;SDS011;69667;52.136;5.424;2024-01-30T02:16:45;7.88;;;4.18;;
76693;SDS011;69667;52.136;5.424;2024-01-30T02:19:14;6.82;;;3.67;;
76693;SDS011;69667;52.136;5.424;2024-01-30T02:21:42;10.20;;;3.95;;
76693;SDS011;69667;52.136;5.424;2024-01-30T02:24:11;8.43;;;4.47;;
76693;SDS011;69667;52.136;5.424;2024-01-30T02:26:40;9.50;;;4.03;;
76693;SDS011;69667;52.136;5.424;2024-01-30T02:29:08;7.43;;;3.72;;
76693;SDS011;69667;52.136;5.424;2024-01-30T02:31:36;9.43;;;5.05;;
76693;SDS011;69667;52.136;5.424;2024-01-30T02:34:05;9.90;;;3.85;;
76693;SDS011;69667;52.136;5.424;2024-01-30T02:36:33;13.23;;;3.95;;
76693;SDS011;69667;52.136;5.424;2024-01-30T02:39:01;6.30;;;3.63;;
76693;SDS011;69667;52.136;5.424;2024-01-30T02:43:58;7.80;;;3.40;;
76693;SDS011;69667;52.136;5.424;2024-01-30T02:46:27;6.97;;;3.38;;
76693;SDS011;69667;52.136;5.424;2024-01-30T02:48:55;8.27;;;3.33;;
76693;SDS011;69667;52.136;5.424;2024-01-30T02:51:24;6.07;;;3.75;;
76693;SDS011;69667;52.136;5.424;2024-01-30T02:53:52;9.35;;;4.45;;
76693;SDS011;69667;52.136;5.424;2024-01-30T02:56:21;10.57;;;4.30;;
76693;SDS011;69667;52.136;5.424;2024-01-30T02:58:51;7.05;;;4.28;;
76693;SDS011;69667;52.136;5.424;2024-01-30T03:01:19;9.23;;;4.53;;
76693;SDS011;69667;52.136;5.424;2024-01-30T03:03:48;9.38;;;4.20;;
76693;SDS011;69667;52.136;5.424;2024-01-30T03:06:16;10.55;;;4.88;;
76693;SDS011;69667;52.136;5.424;2024-01-30T03:08:47;8.52;;;4.22;;
76693;SDS011;69667;52.136;5.424;2024-01-30T03:11:17;12.10;;;5.00;;
76693;SDS011;69667;52.136;5.424;2024-01-30T03:13:45;10.13;;;4.45;;
76693;SDS011;69667;52.136;5.424;2024-01-30T03:16:14;11.55;;;4.88;;
76693;SDS011;69667;52.136;5.424;2024-01-30T03:18:42;8.05;;;4.85;;
76693;SDS011;69667;52.136;5.424;2024-01-30T03:21:10;13.80;;;4.95;;
76693;SDS011;69667;52.136;5.424;2024-01-30T03:23:38;17.95;;;5.93;;
76693;SDS011;69667;52.136;5.424;2024-01-30T03:26:07;9.85;;;5.13;;
76693;SDS011;69667;52.136;5.424;2024-01-30T03:28:36;11.43;;;5.25;;
76693;SDS011;69667;52.136;5.424;2024-01-30T03:31:04;9.35;;;5.00;;
76693;SDS011;69667;52.136;5.424;2024-01-30T03:33:32;9.35;;;5.07;;
76693;SDS011;69667;52.136;5.424;2024-01-30T03:36:04;10.15;;;5.03;;
76693;SDS011;69667;52.136;5.424;2024-01-30T03:38:33;6.85;;;4.15;;
76693;SDS011;69667;52.136;5.424;2024-01-30T03:41:03;8.65;;;4.25;;
76693;SDS011;69667;52.136;5.424;2024-01-30T03:43:35;7.82;;;4.80;;
76693;SDS011;69667;52.136;5.424;2024-01-30T03:46:04;8.55;;;4.65;;
76693;SDS011;69667;52.136;5.424;2024-01-30T03:48:32;8.43;;;4.47;;
76693;SDS011;69667;52.136;5.424;2024-01-30T03:51:01;9.15;;;4.22;;
76693;SDS011;69667;52.136;5.424;2024-01-30T03:53:32;8.10;;;4.00;;
76693;SDS011;69667;52.136;5.424;2024-01-30T03:56:00;13.48;;;4.18;;
76693;SDS011;69667;52.136;5.424;2024-01-30T03:58:30;7.32;;;3.58;;
76693;SDS011;69667;52.136;5.424;2024-01-30T04:00:59;7.28;;;4.00;;
76693;SDS011;69667;52.136;5.424;2024-01-30T04:03:27;7.50;;;4.03;;
76693;SDS011;69667;52.136;5.424;2024-01-30T04:05:56;6.20;;;3.28;;
76693;SDS011;69667;52.136;5.424;2024-01-30T04:08:24;13.35;;;4.13;;
76693;SDS011;69667;52.136;5.424;2024-01-30T04:10:53;5.07;;;2.80;;
76693;SDS011;69667;52.136;5.424;2024-01-30T04:13:21;7.13;;;3.70;;
76693;SDS011;69667;52.136;5.424;2024-01-30T04:15:50;7.65;;;3.78;;
76693;SDS011;69667;52.136;5.424;2024-01-30T04:18:19;7.30;;;4.07;;
76693;SDS011;69667;52.136;5.424;2024-01-30T04:20:47;8.20;;;4.13;;
76693;SDS011;69667;52.136;5.424;2024-01-30T04:23:15;6.30;;;3.05;;
76693;SDS011;69667;52.136;5.424;2024-01-30T04:25:43;6.93;;;3.45;;
76693;SDS011;69667;52.136;5.424;2024-01-30T04:28:12;6.38;;;3.78;;
76693;SDS011;69667;52.136;5.424;2024-01-30T04:30:41;10.85;;;3.65;;
76693;SDS011;69667;52.136;5.424;2024-01-30T04:33:10;5.40;;;2.92;;
76693;SDS011;69667;52.136;5.424;2024-01-30T04:35:39;7.25;;;3.70;;
76693;SDS011;69667;52.136;5.424;2024-01-30T04:38:09;9.30;;;3.22;;
76693;SDS011;69667;52.136;5.424;2024-01-30T04:40:37;5.30;;;3.17;;
76693;SDS011;69667;52.136;5.424;2024-01-30T04:43:05;5.05;;;2.78;;
76693;SDS011;69667;52.136;5.424;2024-01-30T04:45:34;8.23;;;3.10;;
76693;SDS011;69667;52.136;5.424;2024-01-30T04:48:02;11.60;;;3.20;;
76693;SDS011;69667;52.136;5.424;2024-01-30T04:50:31;8.65;;;3.50;;
76693;SDS011;69667;52.136;5.424;2024-01-30T04:52:59;6.35;;;3.08;;
76693;SDS011;69667;52.136;5.424;2024-01-30T04:55:28;5.95;;;3.00;;
76693;SDS011;69667;52.136;5.424;2024-01-30T04:57:56;7.18;;;3.60;;
76693;SDS011;69667;52.136;5.424;2024-01-30T05:00:25;5.13;;;2.75;;
76693;SDS011;69667;52.136;5.424;2024-01-30T05:02:55;6.82;;;3.10;;
76693;SDS011;69667;52.136;5.424;2024-01-30T05:05:23;5.82;;;3.30;;
76693;SDS011;69667;52.136;5.424;2024-01-30T05:07:52;7.78;;;3.10;;
76693;SDS011;69667;52.136;5.424;2024-01-30T05:10:20;8.80;;;3.03;;
76693;SDS011;69667;52.136;5.424;2024-01-30T05:12:48;8.18;;;3.10;;
76693;SDS011;69667;52.136;5.424;2024-01-30T05:15:17;8.02;;;3.05;;
76693;SDS011;69667;52.136;5.424;2024-01-30T05:17:52;4.93;;;2.60;;
76693;SDS011;69667;52.136;5.424;2024-01-30T05:22:48;6.55;;;2.75;;
76693;SDS011;69667;52.136;5.424;2024-01-30T05:25:18;8.55;;;3.05;;
76693;SDS011;69667;52.136;5.424;2024-01-30T05:27:46;5.93;;;3.00;;
76693;SDS011;69667;52.136;5.424;2024-01-30T05:30:15;8.38;;;3.25;;
76693;SDS011;69667;52.136;5.424;2024-01-30T05:32:43;6.40;;;2.97;;
76693;SDS011;69667;52.136;5.424;2024-01-30T05:35:11;6.88;;;3.17;;
76693;SDS011;69667;52.136;5.424;2024-01-30T05:37:40;6.72;;;3.00;;
76693;SDS011;69667;52.136;5.424;2024-01-30T05:40:08;6.60;;;2.95;;
76693;SDS011;69667;52.136;5.424;2024-01-30T05:42:37;6.30;;;3.15;;
76693;SDS011;69667;52.136;5.424;2024-01-30T05:45:06;5.25;;;2.90;;
76693;SDS011;69667;52.136;5.424;2024-01-30T05:50:03;5.97;;;3.33;;
76693;SDS011;69667;52.136;5.424;2024-01-30T05:52:31;6.85;;;3.05;;
76693;SDS011;69667;52.136;5.424;2024-01-30T05:54:59;8.50;;;3.58;;
76693;SDS011;69667;52.136;5.424;2024-01-30T05:57:28;7.97;;;3.22;;
76693;SDS011;69667;52.136;5.424;2024-01-30T06:00:01;6.45;;;3.25;;
76693;SDS011;69667;52.136;5.424;2024-01-30T06:02:32;6.10;;;2.78;;
76693;SDS011;69667;52.136;5.424;2024-01-30T06:05:01;9.38;;;3.72;;
76693;SDS011;69667;52.136;5.424;2024-01-30T06:07:29;8.98;;;3.22;;
76693;SDS011;69667;52.136;5.424;2024-01-30T06:10:02;5.70;;;3.22;;
76693;SDS011;69667;52.136;5.424;2024-01-30T06:12:31;5.75;;;3.17;;
76693;SDS011;69667;52.136;5.424;2024-01-30T06:14:59;4.82;;;2.63;;
76693;SDS011;69667;52.136;5.424;2024-01-30T06:17:28;6.63;;;2.97;;
76693;SDS011;69667;52.136;5.424;2024-01-30T06:19:57;6.57;;;3.20;;
76693;SDS011;69667;52.136;5.424;2024-01-30T06:22:26;7.18;;;3.55;;
76693;SDS011;69667;52.136;5.424;2024-01-30T06:24:55;5.68;;;3.40;;
76693;SDS011;69667;52.136;5.424;2024-01-30T06:27:23;7.07;;;3.20;;
76693;SDS011;69667;52.136;5.424;2024-01-30T06:29:51;6.47;;;2.97;;
76693;SDS011;69667;52.136;5.424;2024-01-30T06:32:19;9.90;;;2.95;;
76693;SDS011;69667;52.136;5.424;2024-01-30T06:34:48;8.95;;;3.17;;
76693;SDS011;69667;52.136;5.424;2024-01-30T06:37:16;7.15;;;3.30;;
76693;SDS011;69667;52.136;5.424;2024-01-30T06:39:44;5.82;;;3.17;;
76693;SDS011;69667;52.136;5.424;2024-01-30T06:42:14;8.38;;;3.00;;
76693;SDS011;69667;52.136;5.424;2024-01-30T06:44:44;4.70;;;3.00;;
76693;SDS011;69667;52.136;5.424;2024-01-30T06:47:12;8.55;;;3.03;;
76693;SDS011;69667;52.136;5.424;2024-01-30T06:49:41;8.85;;;3.65;;
76693;SDS011;69667;52.136;5.424;2024-01-30T06:52:11;6.97;;;2.88;;
76693;SDS011;69667;52.136;5.424;2024-01-30T06:54:39;6.50;;;3.38;;
76693;SDS011;69667;52.136;5.424;2024-01-30T06:57:08;4.68;;;3.00;;
76693;SDS011;69667;52.136;5.424;2024-01-30T06:59:39;6.30;;;3.22;;
76693;SDS011;69667;52.136;5.424;2024-01-30T07:02:11;5.93;;;3.00;;
76693;SDS011;69667;52.136;5.424;2024-01-30T07:04:40;7.07;;;3.30;;
76693;SDS011;69667;52.136;5.424;2024-01-30T07:07:13;8.38;;;3.92;;
76693;SDS011;69667;52.136;5.424;2024-01-30T07:09:42;5.15;;;2.95;;
76693;SDS011;69667;52.136;5.424;2024-01-30T07:12:11;7.05;;;3.15;;
76693;SDS011;69667;52.136;5.424;2024-01-30T07:14:39;7.43;;;3.47;;
76693;SDS011;69667;52.136;5.424;2024-01-30T07:17:08;7.95;;;3.28;;
76693;SDS011;69667;52.136;5.424;2024-01-30T07:19:37;5.93;;;3.20;;
76693;SDS011;69667;52.136;5.424;2024-01-30T07:22:05;7.72;;;3.40;;
76693;SDS011;69667;52.136;5.424;2024-01-30T07:24:34;6.88;;;3.72;;
76693;SDS011;69667;52.136;5.424;2024-01-30T07:27:02;8.15;;;3.70;;
76693;SDS011;69667;52.136;5.424;2024-01-30T07:29:31;9.00;;;3.60;;
76693;SDS011;69667;52.136;5.424;2024-01-30T07:32:00;5.22;;;3.45;;
76693;SDS011;69667;52.136;5.424;2024-01-30T07:34:28;6.57;;;3.03;;
76693;SDS011;69667;52.136;5.424;2024-01-30T07:36:56;5.30;;;3.28;;
76693;SDS011;69667;52.136;5.424;2024-01-30T07:39:25;6.90;;;3.53;;
76693;SDS011;69667;52.136;5.424;2024-01-30T07:41:54;8.75;;;3.75;;
76693;SDS011;69667;52.136;5.424;2024-01-30T07:44:22;5.85;;;2.90;;
76693;SDS011;69667;52.136;5.424;2024-01-30T07:46:50;5.65;;;2.75;;
76693;SDS011;69667;52.136;5.424;2024-01-30T07:49:19;9.77;;;3.72;;
76693;SDS011;69667;52.136;5.424;2024-01-30T07:51:47;8.43;;;3.00;;
76693;SDS011;69667;52.136;5.424;2024-01-30T07:54:15;6.03;;;3.25;;
76693;SDS011;69667;52.136;5.424;2024-01-30T07:56:44;11.52;;;3.72;;
76693;SDS011;69667;52.136;5.424;2024-01-30T07:59:12;6.22;;;3.22;;
76693;SDS011;69667;52.136;5.424;2024-01-30T08:01:41;8.23;;;3.40;;
76693;SDS011;69667;52.136;5.424;2024-01-30T08:04:09;5.65;;;2.97;;
76693;SDS011;69667;52.136;5.424;2024-01-30T08:06:38;6.55;;;3.50;;
76693;SDS011;69667;52.136;5.424;2024-01-30T08:09:10;7.35;;;3.13;;
76693;SDS011;69667;52.136;5.424;2024-01-30T08:11:38;6.25;;;3.10;;
76693;SDS011;69667;52.136;5.424;2024-01-30T08:14:06;6.30;;;3.38;;
76693;SDS011;69667;52.136;5.424;2024-01-30T08:16:34;8.80;;;3.63;;
76693;SDS011;69667;52.136;5.424;2024-01-30T08:19:11;5.38;;;3.30;;
76693;SDS011;69667;52.136;5.424;2024-01-30T08:21:46;7.90;;;3.38;;
76693;SDS011;69667;52.136;5.424;2024-01-30T08:27:02;7.05;;;3.08;;
76693;SDS011;69667;52.136;5.424;2024-01-30T08:29:32;7.63;;;3.55;;
76693;SDS011;69667;52.136;5.424;2024-01-30T08:32:00;6.80;;;3.05;;
76693;SDS011;69667;52.136;5.424;2024-01-30T08:34:29;7.75;;;3.22;;
76693;SDS011;69667;52.136;5.424;2024-01-30T08:36:58;6.07;;;3.03;;
76693;SDS011;69667;52.136;5.424;2024-01-30T08:39:26;12.48;;;4.03;;
76693;SDS011;69667;52.136;5.424;2024-01-30T08:41:54;7.47;;;3.08;;
76693;SDS011;69667;52.136;5.424;2024-01-30T08:44:25;6.25;;;3.00;;
76693;SDS011;69667;52.136;5.424;2024-01-30T08:46:54;6.75;;;3.75;;
76693;SDS011;69667;52.136;5.424;2024-01-30T08:49:24;8.52;;;3.22;;
76693;SDS011;69667;52.136;5.424;2024-01-30T08:51:52;8.02;;;3.55;;
76693;SDS011;69667;52.136;5.424;2024-01-30T08:54:20;8.65;;;3.40;;
76693;SDS011;69667;52.136;5.424;2024-01-30T08:56:49;8.52;;;4.55;;
76693;SDS011;69667;52.136;5.424;2024-01-30T08:59:19;8.77;;;3.40;;
76693;SDS011;69667;52.136;5.424;2024-01-30T09:01:47;8.13;;;4.25;;
76693;SDS011;69667;52.136;5.424;2024-01-30T09:04:29;8.25;;;3.60;;
76693;SDS011;69667;52.136;5.424;2024-01-30T09:06:58;8.23;;;3.50;;
76693;SDS011;69667;52.136;5.424;2024-01-30T09:09:26;6.00;;;3.47;;
76693;SDS011;69667;52.136;5.424;2024-01-30T09:11:54;6.45;;;3.40;;
76693;SDS011;69667;52.136;5.424;2024-01-30T09:14:23;7.25;;;3.67;;
76693;SDS011;69667;52.136;5.424;2024-01-30T09:16:55;7.20;;;2.97;;
76693;SDS011;69667;52.136;5.424;2024-01-30T09:19:24;8.18;;;3.75;;
76693;SDS011;69667;52.136;5.424;2024-01-30T09:21:53;9.27;;;3.22;;
76693;SDS011;69667;52.136;5.424;2024-01-30T09:24:21;7.10;;;3.42;;
76693;SDS011;69667;52.136;5.424;2024-01-30T09:26:50;6.50;;;2.95;;
76693;SDS011;69667;52.136;5.424;2024-01-30T09:29:18;8.73;;;3.58;;
76693;SDS011;69667;52.136;5.424;2024-01-30T09:31:46;6.20;;;2.50;;
76693;SDS011;69667;52.136;5.424;2024-01-30T09:34:15;8.63;;;3.45;;
76693;SDS011;69667;52.136;5.424;2024-01-30T09:36:44;9.05;;;2.97;;
76693;SDS011;69667;52.136;5.424;2024-01-30T09:39:12;7.88;;;3.30;;
76693;SDS011;69667;52.136;5.424;2024-01-30T09:41:45;5.57;;;3.25;;
76693;SDS011;69667;52.136;5.424;2024-01-30T09:44:17;6.00;;;3.00;;
76693;SDS011;69667;52.136;5.424;2024-01-30T09:46:48;7.35;;;3.17;;
76693;SDS011;69667;52.136;5.424;2024-01-30T09:49:17;8.25;;;3.28;;
76693;SDS011;69667;52.136;5.424;2024-01-30T09:51:47;8.88;;;3.45;;
76693;SDS011;69667;52.136;5.424;2024-01-30T09:54:17;7.95;;;3.53;;
76693;SDS011;69667;52.136;5.424;2024-01-30T09:56:47;7.82;;;3.42;;
76693;SDS011;69667;52.136;5.424;2024-01-30T09:59:15;7.85;;;3.22;;
76693;SDS011;69667;52.136;5.424;2024-01-30T10:01:44;9.50;;;3.20;;
76693;SDS011;69667;52.136;5.424;2024-01-30T10:04:14;6.95;;;3.50;;
76693;SDS011;69667;52.136;5.424;2024-01-30T10:06:42;8.40;;;3.40;;
76693;SDS011;69667;52.136;5.424;2024-01-30T10:09:11;6.82;;;3.17;;
76693;SDS011;69667;52.136;5.424;2024-01-30T10:14:08;5.70;;;3.08;;
76693;SDS011;69667;52.136;5.424;2024-01-30T10:16:37;5.30;;;2.90;;
76693;SDS011;69667;52.136;5.424;2024-01-30T10:19:05;8.10;;;3.35;;
76693;SDS011;69667;52.136;5.424;2024-01-30T10:21:34;8.57;;;3.38;;
76693;SDS011;69667;52.136;5.424;2024-01-30T10:24:02;8.60;;;3.65;;
76693;SDS011;69667;52.136;5.424;2024-01-30T10:26:31;7.07;;;3.10;;
76693;SDS011;69667;52.136;5.424;2024-01-30T10:29:01;9.13;;;3.72;;
76693;SDS011;69667;52.136;5.424;2024-01-30T10:31:30;8.80;;;3.40;;
76693;SDS011;69667;52.136;5.424;2024-01-30T10:33:58;10.23;;;3.50;;
76693;SDS011;69667;52.136;5.424;2024-01-30T10:36:43;6.43;;;3.38;;
76693;SDS011;69667;52.136;5.424;2024-01-30T10:39:17;5.55;;;3.20;;
76693;SDS011;69667;52.136;5.424;2024-01-30T10:41:47;8.15;;;3.20;;
76693;SDS011;69667;52.136;5.424;2024-01-30T10:44:23;8.90;;;4.22;;
76693;SDS011;69667;52.136;5.424;2024-01-30T10:46:56;8.65;;;3.42;;
76693;SDS011;69667;52.136;5.424;2024-01-30T10:49:33;8.60;;;3.45;;
76693;SDS011;69667;52.136;5.424;2024-01-30T10:52:01;7.10;;;3.33;;
76693;SDS011;69667;52.136;5.424;2024-01-30T10:54:33;7.63;;;3.75;;
76693;SDS011;69667;52.136;5.424;2024-01-30T10:57:03;5.57;;;2.92;;
76693;SDS011;69667;52.136;5.424;2024-01-30T10:59:32;7.47;;;3.40;;
76693;SDS011;69667;52.136;5.424;2024-01-30T11:02:01;6.07;;;2.67;;
76693;SDS011;69667;52.136;5.424;2024-01-30T11:04:37;12.32;;;4.25;;
76693;SDS011;69667;52.136;5.424;2024-01-30T11:10:19;8.45;;;3.17;;
76693;SDS011;69667;52.136;5.424;2024-01-30T11:12:42;7.50;;;3.13;;
76693;SDS011;69667;52.136;5.424;2024-01-30T11:15:13;8.27;;;2.95;;
76693;SDS011;69667;52.136;5.424;2024-01-30T11:20:19;9.63;;;3.13;;
76693;SDS011;69667;52.136;5.424;2024-01-30T11:22:59;8.98;;;3.03;;
76693;SDS011;69667;52.136;5.424;2024-01-30T11:25:33;5.28;;;2.88;;
76693;SDS011;69667;52.136;5.424;2024-01-30T11:28:02;9.43;;;3.20;;
76693;SDS011;69667;52.136;5.424;2024-01-30T11:30:31;6.07;;;2.60;;
76693;SDS011;69667;52.136;5.424;2024-01-30T11:35:34;5.65;;;2.55;;
76693;SDS011;69667;52.136;5.424;2024-01-30T11:38:04;6.03;;;2.20;;
76693;SDS011;69667;52.136;5.424;2024-01-30T11:40:33;4.05;;;2.17;;
76693;SDS011;69667;52.136;5.424;2024-01-30T11:43:03;2.97;;;1.55;;
76693;SDS011;69667;52.136;5.424;2024-01-30T11:45:33;3.70;;;1.30;;
76693;SDS011;69667;52.136;5.424;2024-01-30T11:48:02;4.00;;;1.70;;
76693;SDS011;69667;52.136;5.424;2024-01-30T11:50:32;5.85;;;1.27;;
76693;SDS011;69667;52.136;5.424;2024-01-30T11:53:02;3.05;;;1.00;;
76693;SDS011;69667;52.136;5.424;2024-01-30T11:55:32;2.53;;;1.23;;
76693;SDS011;69667;52.136;5.424;2024-01-30T11:58:01;3.58;;;0.70;;
76693;SDS011;69667;52.136;5.424;2024-01-30T12:00:31;1.45;;;0.40;;
76693;SDS011;69667;52.136;5.424;2024-01-30T12:03:02;1.60;;;0.90;;
76693;SDS011;69667;52.136;5.424;2024-01-30T12:05:32;0.98;;;0.52;;
76693;SDS011;69667;52.136;5.424;2024-01-30T12:08:01;3.33;;;0.60;;
76693;SDS011;69667;52.136;5.424;2024-01-30T12:10:29;1.20;;;0.50;;
76693;SDS011;69667;52.136;5.424;2024-01-30T12:12:58;3.10;;;0.73;;
76693;SDS011;69667;52.136;5.424;2024-01-30T12:15:27;1.00;;;0.43;;
76693;SDS011;69667;52.136;5.424;2024-01-30T12:18:05;1.52;;;0.60;;
76693;SDS011;69667;52.136;5.424;2024-01-30T12:20:35;2.85;;;0.80;;
76693;SDS011;69667;52.136;5.424;2024-01-30T12:23:03;3.15;;;0.70;;
76693;SDS011;69667;52.136;5.424;2024-01-30T12:25:32;5.35;;;1.05;;
76693;SDS011;69667;52.136;5.424;2024-01-30T12:28:00;2.65;;;1.20;;
76693;SDS011;69667;52.136;5.424;2024-01-30T12:30:29;3.70;;;1.10;;
76693;SDS011;69667;52.136;5.424;2024-01-30T12:32:57;3.15;;;1.35;;
76693;SDS011;69667;52.136;5.424;2024-01-30T12:35:26;6.03;;;1.60;;
76693;SDS011;69667;52.136;5.424;2024-01-30T12:37:57;2.50;;;1.10;;
76693;SDS011;69667;52.136;5.424;2024-01-30T12:40:26;3.75;;;1.30;;
76693;SDS011;69667;52.136;5.424;2024-01-30T12:42:54;6.95;;;1.20;;
76693;SDS011;69667;52.136;5.424;2024-01-30T12:45:23;3.22;;;1.08;;
76693;SDS011;69667;52.136;5.424;2024-01-30T12:47:51;2.47;;;1.00;;
76693;SDS011;69667;52.136;5.424;2024-01-30T12:50:20;1.80;;;1.02;;
76693;SDS011;69667;52.136;5.424;2024-01-30T12:52:49;4.55;;;0.95;;
76693;SDS011;69667;52.136;5.424;2024-01-30T12:55:17;3.08;;;1.20;;
76693;SDS011;69667;52.136;5.424;2024-01-30T12:57:45;3.03;;;1.00;;
76693;SDS011;69667;52.136;5.424;2024-01-30T13:00:14;8.25;;;1.52;;
76693;SDS011;69667;52.136;5.424;2024-01-30T13:02:44;6.60;;;1.02;;
76693;SDS011;69667;52.136;5.424;2024-01-30T13:05:13;3.72;;;1.63;;
76693;SDS011;69667;52.136;5.424;2024-01-30T13:07:41;1.98;;;1.13;;
76693;SDS011;69667;52.136;5.424;2024-01-30T13:10:10;4.10;;;1.00;;
76693;SDS011;69667;52.136;5.424;2024-01-30T13:12:38;2.22;;;0.93;;
76693;SDS011;69667;52.136;5.424;2024-01-30T13:15:07;2.72;;;1.20;;
76693;SDS011;69667;52.136;5.424;2024-01-30T13:17:35;4.10;;;1.35;;
76693;SDS011;69667;52.136;5.424;2024-01-30T13:20:04;2.15;;;0.88;;
76693;SDS011;69667;52.136;5.424;2024-01-30T13:22:38;2.28;;;0.55;;
76693;SDS011;69667;52.136;5.424;2024-01-30T13:25:07;3.05;;;0.70;;
76693;SDS011;69667;52.136;5.424;2024-01-30T13:27:36;2.55;;;0.68;;
76693;SDS011;69667;52.136;5.424;2024-01-30T13:30:06;4.80;;;0.52;;
76693;SDS011;69667;52.136;5.424;2024-01-30T13:32:37;2.03;;;0.45;;
76693;SDS011;69667;52.136;5.424;2024-01-30T13:37:34;2.75;;;0.38;;
76693;SDS011;69667;52.136;5.424;2024-01-30T13:40:03;0.90;;;0.30;;
76693;SDS011;69667;52.136;5.424;2024-01-30T13:42:37;1.52;;;0.38;;
76693;SDS011;69667;52.136;5.424;2024-01-30T13:45:06;1.67;;;0.70;;
76693;SDS011;69667;52.136;5.424;2024-01-30T13:47:37;1.52;;;0.50;;
76693;SDS011;69667;52.136;5.424;2024-01-30T13:52:35;1.92;;;0.40;;
76693;SDS011;69667;52.136;5.424;2024-01-30T13:55:11;2.05;;;0.60;;
76693;SDS011;69667;52.136;5.424;2024-01-30T13:57:40;3.63;;;0.50;;
76693;SDS011;69667;52.136;5.424;2024-01-30T14:00:09;1.35;;;0.43;;
76693;SDS011;69667;52.136;5.424;2024-01-30T14:02:41;3.92;;;0.70;;
76693;SDS011;69667;52.136;5.424;2024-01-30T14:05:09;1.60;;;0.63;;
76693;SDS011;69667;52.136;5.424;2024-01-30T14:07:41;3.03;;;1.15;;
76693;SDS011;69667;52.136;5.424;2024-01-30T14:10:11;4.88;;;0.57;;
76693;SDS011;69667;52.136;5.424;2024-01-30T14:12:42;2.83;;;1.10;;
76693;SDS011;69667;52.136;5.424;2024-01-30T14:15:11;3.47;;;0.63;;
76693;SDS011;69667;52.136;5.424;2024-01-30T14:17:53;1.27;;;0.40;;
76693;SDS011;69667;52.136;5.424;2024-01-30T14:20:22;1.23;;;0.50;;
76693;SDS011;69667;52.136;5.424;2024-01-30T14:22:51;2.85;;;0.65;;
76693;SDS011;69667;52.136;5.424;2024-01-30T14:25:23;0.90;;;0.40;;
76693;SDS011;69667;52.136;5.424;2024-01-30T14:27:52;1.23;;;0.68;;
76693;SDS011;69667;52.136;5.424;2024-01-30T14:30:20;1.05;;;0.40;;
76693;SDS011;69667;52.136;5.424;2024-01-30T14:32:49;1.85;;;0.35;;
76693;SDS011;69667;52.136;5.424;2024-01-30T14:35:18;1.75;;;0.38;;
76693;SDS011;69667;52.136;5.424;2024-01-30T14:37:47;3.83;;;0.38;;
76693;SDS011;69667;52.136;5.424;2024-01-30T14:40:15;2.83;;;0.60;;
76693;SDS011;69667;52.136;5.424;2024-01-30T14:42:43;2.20;;;0.55;;
76693;SDS011;69667;52.136;5.424;2024-01-30T14:45:12;1.80;;;0.77;;
76693;SDS011;69667;52.136;5.424;2024-01-30T14:47:40;1.02;;;0.43;;
76693;SDS011;69667;52.136;5.424;2024-01-30T14:50:08;3.20;;;0.70;;
76693;SDS011;69667;52.136;5.424;2024-01-30T14:52:37;0.95;;;0.47;;
76693;SDS011;69667;52.136;5.424;2024-01-30T14:55:07;6.93;;;1.00;;
76693;SDS011;69667;52.136;5.424;2024-01-30T14:57:36;2.05;;;0.75;;
76693;SDS011;69667;52.136;5.424;2024-01-30T15:02:34;2.50;;;0.93;;
76693;SDS011;69667;52.136;5.424;2024-01-30T15:07:31;1.58;;;0.80;;
76693;SDS011;69667;52.136;5.424;2024-01-30T15:12:36;1.42;;;0.85;;
76693;SDS011;69667;52.136;5.424;2024-01-30T15:15:06;5.15;;;1.05;;
76693;SDS011;69667;52.136;5.424;2024-01-30T15:17:36;2.58;;;1.25;;
76693;SDS011;69667;52.136;5.424;2024-01-30T15:20:05;4.15;;;1.30;;
76693;SDS011;69667;52.136;5.424;2024-01-30T15:22:36;8.40;;;2.60;;
76693;SDS011;69667;52.136;5.424;2024-01-30T15:25:07;5.15;;;2.15;;
76693;SDS011;69667;52.136;5.424;2024-01-30T15:27:36;4.15;;;1.63;;
76693;SDS011;69667;52.136;5.424;2024-01-30T15:32:34;3.50;;;1.40;;
76693;SDS011;69667;52.136;5.424;2024-01-30T15:35:05;3.67;;;1.92;;
76693;SDS011;69667;52.136;5.424;2024-01-30T15:37:36;3.30;;;1.98;;
76693;SDS011;69667;52.136;5.424;2024-01-30T15:40:04;2.97;;;1.90;;